Time;durP1;ratioP1;P1;durP2;ratioP2;P2;SDS_P1;SDS_P2;PMS_P1;PMS_P2;Temp;Humidity;BMP_temperature;BMP_pressure;BME280_temperature;BME280_humidity;BME280_pressure;Samples;Min_cycle;Max_cycle;Signal;HPM_P1;HPM_P2
2020/12/13 00:00:15;;;;;;;19.33;8.27;;;6.20;99.90;;;;;;5014640;28;20026;-80
2020/12/13 00:02:40;;;;;;;22.95;10.52;;;6.10;99.90;;;;;;5032241;28;20525;-80
2020/12/13 00:05:07;;;;;;;27.73;11.40;;;6.20;99.90;;;;;;5014510;28;20030;-80
2020/12/13 00:07:34;;;;;;;29.50;12.70;;;6.40;99.90;;;;;;4998662;28;20034;-79
2020/12/13 00:10:00;;;;;;;35.22;15.40;;;6.50;99.90;;;;;;4998441;28;20034;-80
2020/12/13 00:12:25;;;;;;;30.00;12.20;;;6.50;99.90;;;;;;4998284;28;20061;-80
2020/12/13 00:14:51;;;;;;;31.25;13.00;;;6.60;99.90;;;;;;5030765;28;20061;-80
2020/12/13 00:17:17;;;;;;;31.77;13.85;;;6.60;99.90;;;;;;4991007;28;20042;-80
2020/12/13 00:19:43;;;;;;;40.67;14.43;;;6.60;99.90;;;;;;4978748;28;20031;-80
2020/12/13 00:22:08;;;;;;;37.67;12.55;;;6.70;99.90;;;;;;5002881;28;20110;-79
2020/12/13 00:24:34;;;;;;;43.80;14.95;;;6.60;99.90;;;;;;4998116;28;20455;-79
2020/12/13 00:26:59;;;;;;;35.58;13.77;;;6.60;99.90;;;;;;4998170;28;20052;-80
2020/12/13 00:29:25;;;;;;;38.42;15.02;;;6.60;99.90;;;;;;4998371;28;20034;-80
2020/12/13 00:31:51;;;;;;;40.42;16.35;;;6.60;99.90;;;;;;5032013;28;20111;-80
2020/12/13 00:34:17;;;;;;;43.58;17.10;;;6.60;99.90;;;;;;4997894;28;20049;-80
2020/12/13 00:36:42;;;;;;;53.88;17.35;;;6.60;99.90;;;;;;4997954;28;20043;-80
2020/12/13 00:39:08;;;;;;;53.03;18.40;;;6.50;99.90;;;;;;4998414;28;20025;-78
2020/12/13 00:41:34;;;;;;;58.85;19.10;;;6.50;99.90;;;;;;5032147;28;20041;-80
2020/12/13 00:44:00;;;;;;;54.67;19.13;;;6.50;99.90;;;;;;5014367;28;20037;-80
2020/12/13 00:46:26;;;;;;;47.13;15.82;;;6.50;99.90;;;;;;4997779;28;20132;-79
2020/12/13 00:48:52;;;;;;;50.28;16.73;;;6.40;99.90;;;;;;4998016;28;20022;-79
2020/12/13 00:51:26;;;;;;;39.33;14.30;;;6.50;99.90;;;;;;5014232;28;20125;-79
2020/12/13 00:53:52;;;;;;;40.53;14.32;;;6.40;99.90;;;;;;4997914;28;20061;-78
2020/12/13 00:56:18;;;;;;;40.15;13.88;;;6.40;99.90;;;;;;4997705;28;20037;-79
2020/12/13 00:58:45;;;;;;;45.33;15.00;;;6.40;99.90;;;;;;4997999;28;20037;-80
2020/12/13 01:01:10;;;;;;;45.95;15.07;;;6.40;99.90;;;;;;4997943;28;20033;-80
2020/12/13 01:03:36;;;;;;;35.35;12.38;;;6.40;99.90;;;;;;4994657;28;20042;-80
2020/12/13 01:06:02;;;;;;;37.70;13.48;;;6.40;99.90;;;;;;4994454;28;20409;-80
2020/12/13 01:08:27;;;;;;;40.20;14.02;;;6.30;99.90;;;;;;5011057;28;20034;-79
2020/12/13 01:10:53;;;;;;;43.28;14.80;;;6.30;99.90;;;;;;5028650;28;20036;-80
2020/12/13 01:13:18;;;;;;;40.25;13.25;;;6.40;99.90;;;;;;4994627;28;20030;-80
2020/12/13 01:15:44;;;;;;;32.20;12.60;;;6.30;99.90;;;;;;4982362;28;20293;-80
2020/12/13 01:18:09;;;;;;;37.53;12.95;;;6.30;99.90;;;;;;5003260;28;20050;-80
2020/12/13 01:20:35;;;;;;;38.42;12.63;;;6.30;99.90;;;;;;5010667;28;20026;-79
2020/12/13 01:23:01;;;;;;;37.00;12.18;;;6.30;99.90;;;;;;5013944;28;20037;-79
2020/12/13 01:25:26;;;;;;;36.40;11.57;;;6.20;99.90;;;;;;5013750;28;20033;-80
2020/12/13 01:27:52;;;;;;;35.17;11.77;;;6.20;99.90;;;;;;5014080;28;20041;-80
2020/12/13 01:30:18;;;;;;;36.92;12.55;;;6.20;99.90;;;;;;5048266;28;20116;-80
2020/12/13 01:32:43;;;;;;;44.00;15.15;;;6.20;99.90;;;;;;5013668;28;20029;-80
2020/12/13 01:35:11;;;;;;;41.97;13.23;;;6.30;99.90;;;;;;5013342;28;20121;-80
2020/12/13 01:37:36;;;;;;;44.97;13.55;;;6.30;99.90;;;;;;5047867;28;20033;-80
2020/12/13 01:40:07;;;;;;;40.03;13.80;;;6.30;99.90;;;;;;5013802;28;20064;-80
2020/12/13 01:42:42;;;;;;;;;;;6.30;99.90;;;;;;5014052;28;20163;-78
2020/12/13 01:45:13;;;;;;;35.03;11.00;;;6.30;99.90;;;;;;5029628;28;19976;-80
2020/12/13 01:47:39;;;;;;;36.88;12.48;;;6.20;99.90;;;;;;5030022;28;20037;-79
2020/12/13 01:50:14;;;;;;;30.05;10.23;;;6.20;99.90;;;;;;5029700;28;20025;-79
2020/12/13 01:52:47;;;;;;;34.67;11.35;;;6.20;99.90;;;;;;5013288;28;20037;-80
2020/12/13 01:55:17;;;;;;;28.48;9.35;;;6.20;99.90;;;;;;5013524;28;20037;-80
2020/12/13 01:57:45;;;;;;;;;;;6.20;99.90;;;;;;5013682;28;20042;-80
2020/12/13 02:00:16;;;;;;;28.58;10.07;;;6.20;99.90;;;;;;5047524;28;19909;-79
2020/12/13 02:02:53;;;;;;;23.50;9.02;;;6.10;99.90;;;;;;5013311;28;20040;-80
2020/12/13 02:05:20;;;;;;;25.60;8.50;;;6.20;99.90;;;;;;5028743;28;20125;-80
2020/12/13 02:07:51;;;;;;;26.30;9.63;;;6.20;99.90;;;;;;5013081;28;20037;-80
2020/12/13 02:10:17;;;;;;;27.73;10.05;;;6.20;99.90;;;;;;5029471;28;20040;-78
2020/12/13 02:12:43;;;;;;;23.65;9.57;;;6.10;99.90;;;;;;5013174;28;20041;-79
2020/12/13 02:15:09;;;;;;;29.63;9.98;;;6.20;99.90;;;;;;5001812;28;20030;-79
2020/12/13 02:17:36;;;;;;;26.98;10.48;;;6.20;99.90;;;;;;5014809;28;20042;-79
2020/12/13 02:20:20;;;;;;;29.73;11.45;;;6.20;99.90;;;;;;4990820;28;20042;-79
2020/12/13 02:22:50;;;;;;;25.17;10.45;;;6.20;99.90;;;;;;5006120;28;20142;-79
2020/12/13 02:25:21;;;;;;;25.63;10.45;;;6.30;99.90;;;;;;5008656;28;20034;-79
2020/12/13 02:27:48;;;;;;;37.35;12.85;;;6.30;99.90;;;;;;5009624;28;20038;-80
2020/12/13 02:30:13;;;;;;;32.17;12.48;;;6.30;99.90;;;;;;5025027;28;20037;-79
2020/12/13 02:32:39;;;;;;;30.20;11.95;;;6.30;99.90;;;;;;4993100;28;20057;-79
2020/12/13 02:35:06;;;;;;;32.33;13.10;;;6.30;99.90;;;;;;5008984;28;20075;-79
2020/12/13 02:37:32;;;;;;;27.20;10.00;;;6.30;99.90;;;;;;5009287;28;20030;-79
2020/12/13 02:39:58;;;;;;;28.15;10.48;;;6.30;99.90;;;;;;5009393;28;20034;-79
2020/12/13 02:42:24;;;;;;;26.08;9.30;;;6.30;99.90;;;;;;4992912;28;20030;-79
2020/12/13 02:44:50;;;;;;;26.25;10.15;;;6.30;99.90;;;;;;4992824;28;20037;-79
2020/12/13 02:47:15;;;;;;;31.73;10.32;;;6.30;99.90;;;;;;5026670;28;20070;-79
2020/12/13 02:49:41;;;;;;;27.42;9.43;;;6.30;99.90;;;;;;4992852;28;20034;-79
2020/12/13 02:52:10;;;;;;;27.67;9.63;;;6.30;99.90;;;;;;5007191;28;20034;-79
2020/12/13 02:54:37;;;;;;;31.90;10.50;;;6.30;99.90;;;;;;5008917;28;20052;-79
2020/12/13 02:57:04;;;;;;;27.50;10.10;;;6.30;99.90;;;;;;5008877;28;20287;-79
2020/12/13 02:59:29;;;;;;;31.88;10.68;;;6.30;99.90;;;;;;4992706;28;20030;-79
2020/12/13 03:01:55;;;;;;;37.25;11.23;;;6.30;99.90;;;;;;4992568;28;20081;-80
2020/12/13 03:04:21;;;;;;;25.58;9.13;;;6.30;99.90;;;;;;5008712;28;20030;-83
2020/12/13 03:06:46;;;;;;;28.25;9.20;;;6.30;99.90;;;;;;4989038;28;20042;-80
2020/12/13 03:09:12;;;;;;;28.25;9.57;;;6.30;99.90;;;;;;4991545;28;20030;-80
2020/12/13 03:11:38;;;;;;;32.70;11.65;;;6.30;99.90;;;;;;5008865;28;20034;-80
2020/12/13 03:14:03;;;;;;;38.78;10.65;;;6.30;99.90;;;;;;5026250;28;20034;-80
2020/12/13 03:16:29;;;;;;;30.65;9.55;;;6.30;99.90;;;;;;4994872;28;20046;-80
2020/12/13 03:18:54;;;;;;;42.70;11.30;;;6.30;99.90;;;;;;4989295;28;20056;-80
2020/12/13 03:21:20;;;;;;;33.17;11.13;;;6.40;99.90;;;;;;4994830;28;20072;-79
2020/12/13 03:23:46;;;;;;;35.70;9.52;;;6.40;99.90;;;;;;5008523;28;20090;-80
2020/12/13 03:26:11;;;;;;;33.65;10.23;;;6.40;99.90;;;;;;5025309;28;20038;-80
2020/12/13 03:28:37;;;;;;;37.08;10.55;;;6.30;99.90;;;;;;5008369;28;20026;-80
2020/12/13 03:31:02;;;;;;;34.38;9.80;;;6.30;99.90;;;;;;5008607;28;20112;-80
2020/12/13 03:33:28;;;;;;;43.00;11.30;;;6.30;99.90;;;;;;5008359;28;20034;-81
2020/12/13 03:35:54;;;;;;;41.50;12.00;;;6.40;99.90;;;;;;4991927;28;20052;-80
2020/12/13 03:38:20;;;;;;;33.22;10.35;;;6.30;99.90;;;;;;5008329;28;20041;-80
2020/12/13 03:40:46;;;;;;;33.28;10.18;;;6.40;99.90;;;;;;4992390;28;20030;-80
2020/12/13 03:43:11;;;;;;;40.63;10.65;;;6.30;99.90;;;;;;5024687;28;20452;-80
2020/12/13 03:45:37;;;;;;;36.63;11.57;;;6.40;99.90;;;;;;5008198;28;20046;-80
2020/12/13 03:48:03;;;;;;;32.10;10.60;;;6.40;99.90;;;;;;4992005;28;20105;-80
2020/12/13 03:50:38;;;;;;;31.50;10.60;;;6.40;99.90;;;;;;5008409;28;20089;-79
2020/12/13 03:53:14;;;;;;;32.65;10.57;;;6.40;99.90;;;;;;5008226;28;20494;-79
2020/12/13 03:55:40;;;;;;;30.67;10.75;;;6.40;99.90;;;;;;5008150;28;20038;-79
2020/12/13 03:58:07;;;;;;;36.95;10.90;;;6.40;99.90;;;;;;5008064;28;20037;-81
2020/12/13 04:00:33;;;;;;;32.95;10.43;;;6.40;99.90;;;;;;5008284;28;20045;-80
2020/12/13 04:03:07;;;;;;;34.95;12.18;;;6.40;99.90;;;;;;5008038;28;20026;-80
2020/12/13 04:05:33;;;;;;;80.57;11.25;;;6.40;99.90;;;;;;4991538;28;20045;-80
2020/12/13 04:08:00;;;;;;;37.47;12.57;;;6.40;99.90;;;;;;5007746;28;20097;-80
2020/12/13 04:10:26;;;;;;;60.13;11.20;;;6.40;99.90;;;;;;5008075;28;20041;-80
2020/12/13 04:12:52;;;;;;;40.10;10.85;;;6.50;99.90;;;;;;4991928;28;20038;-80
2020/12/13 04:15:18;;;;;;;50.72;11.05;;;6.40;99.90;;;;;;5024059;28;20084;-79
2020/12/13 04:17:47;;;;;;;38.00;11.15;;;6.40;99.90;;;;;;5007965;28;20083;-79
2020/12/13 04:20:12;;;;;;;36.58;11.73;;;6.40;99.90;;;;;;4991891;28;20034;-80
2020/12/13 04:22:38;;;;;;;56.55;12.30;;;6.40;99.90;;;;;;5039092;28;20029;-79
2020/12/13 04:25:04;;;;;;;43.65;12.40;;;6.40;99.90;;;;;;5027442;28;20080;-79
2020/12/13 04:27:30;;;;;;;64.43;11.50;;;6.40;99.90;;;;;;5027703;28;20041;-79
2020/12/13 04:29:56;;;;;;;49.20;11.40;;;6.40;99.90;;;;;;5027822;28;20040;-79
2020/12/13 04:32:22;;;;;;;37.13;10.95;;;6.40;99.90;;;;;;5008168;28;20041;-80
2020/12/13 04:34:48;;;;;;;69.85;13.45;;;6.40;99.90;;;;;;5023969;28;20040;-80
2020/12/13 04:37:14;;;;;;;55.35;12.45;;;6.40;99.90;;;;;;5027120;28;20057;-80
2020/12/13 04:39:40;;;;;;;51.25;12.90;;;6.40;99.90;;;;;;5014970;28;20033;-80
2020/12/13 04:42:06;;;;;;;40.75;12.05;;;6.40;99.90;;;;;;5031205;28;20397;-79
2020/12/13 04:44:33;;;;;;;38.63;12.52;;;6.40;99.90;;;;;;5048668;28;20033;-79
2020/12/13 04:47:04;;;;;;;44.95;12.60;;;6.40;99.90;;;;;;5048836;28;20073;-80
2020/12/13 04:49:31;;;;;;;35.95;11.68;;;6.40;99.90;;;;;;5031097;28;20040;-80
2020/12/13 04:51:59;;;;;;;33.38;11.52;;;6.40;99.90;;;;;;5011318;28;20036;-80
2020/12/13 04:54:27;;;;;;;40.95;11.27;;;6.40;99.90;;;;;;5030708;28;20025;-78
2020/12/13 04:56:54;;;;;;;33.97;11.07;;;6.40;99.90;;;;;;5030937;28;20116;-79
2020/12/13 04:59:20;;;;;;;42.20;12.60;;;6.40;99.90;;;;;;5014304;28;20021;-81
2020/12/13 05:01:47;;;;;;;37.10;11.65;;;6.40;99.90;;;;;;5030732;28;20036;-81
2020/12/13 05:07:08;;;;;;;38.83;11.50;;;6.40;99.90;;;;;;5027247;28;20077;-79
2020/12/13 05:09:34;;;;;;;36.70;10.65;;;6.40;99.90;;;;;;5004643;28;20041;-79
2020/12/13 05:12:00;;;;;;;33.75;10.55;;;6.50;99.90;;;;;;5008271;28;20052;-80
2020/12/13 05:14:26;;;;;;;36.28;11.23;;;6.50;99.90;;;;;;5028778;28;20078;-79
2020/12/13 05:17:13;;;;;;;34.03;11.65;;;6.50;99.90;;;;;;5014114;28;20029;-80
2020/12/13 05:19:41;;;;;;;35.17;11.90;;;6.60;99.90;;;;;;5014047;28;20041;-80
2020/12/13 05:22:07;;;;;;;35.70;11.05;;;6.60;99.90;;;;;;5018383;28;20038;-79
2020/12/13 05:24:33;;;;;;;42.97;13.00;;;6.60;99.90;;;;;;5010621;28;20022;-79
2020/12/13 05:27:04;;;;;;;34.53;11.13;;;6.60;99.90;;;;;;5007611;28;20128;-79
2020/12/13 05:29:33;;;;;;;33.58;12.25;;;6.60;99.90;;;;;;5010856;28;20084;-79
2020/12/13 05:32:13;;;;;;;33.95;11.95;;;6.60;99.90;;;;;;4994494;28;20053;-79
2020/12/13 05:34:40;;;;;;;;;;;6.70;99.90;;;;;;4994559;28;20033;-79
2020/12/13 05:37:07;;;;;;;34.67;10.85;;;6.70;99.90;;;;;;5026955;28;20305;-80
2020/12/13 05:39:35;;;;;;;37.15;11.95;;;6.70;99.90;;;;;;5010413;28;20493;-79
2020/12/13 05:42:02;;;;;;;37.80;13.93;;;6.80;99.90;;;;;;5010385;28;20040;-79
2020/12/13 05:47:08;;;;;;;44.10;15.05;;;6.90;99.90;;;;;;4994536;28;20065;-79
2020/12/13 05:51:59;;;;;;;38.58;14.02;;;7.00;99.90;;;;;;5026772;28;20034;-78
2020/12/13 05:54:25;;;;;;;31.15;12.77;;;7.00;99.90;;;;;;5009840;28;20033;-79
2020/12/13 05:56:59;;;;;;;34.03;13.45;;;7.00;99.90;;;;;;4993935;28;20057;-81
2020/12/13 05:59:26;;;;;;;33.85;13.00;;;7.00;99.90;;;;;;5027743;28;20037;-80
2020/12/13 06:01:54;;;;;;;36.45;14.75;;;7.10;99.90;;;;;;4993860;28;20048;-79
2020/12/13 06:04:25;;;;;;;40.75;14.98;;;7.10;99.90;;;;;;4993444;28;20034;-79
2020/12/13 06:06:56;;;;;;;51.38;18.23;;;7.20;99.90;;;;;;4990004;28;20178;-80
2020/12/13 06:09:39;;;;;;;40.13;14.80;;;7.40;99.90;;;;;;5006317;28;20026;-79
2020/12/13 06:12:11;;;;;;;33.58;14.45;;;7.40;99.90;;;;;;4990459;28;20034;-79
2020/12/13 06:14:37;;;;;;;45.38;18.88;;;7.40;99.90;;;;;;5006532;28;20027;-80
2020/12/13 06:17:04;;;;;;;34.20;13.55;;;7.40;99.90;;;;;;5006450;28;20045;-81
2020/12/13 06:19:31;;;;;;;38.85;16.65;;;7.40;99.90;;;;;;5006454;28;20034;-80
2020/12/13 06:22:00;;;;;;;38.55;16.38;;;7.40;99.90;;;;;;5006557;28;20022;-79
2020/12/13 06:24:26;;;;;;;37.15;15.20;;;7.40;99.90;;;;;;5006071;28;20098;-79
2020/12/13 06:26:53;;;;;;;31.25;13.80;;;7.40;99.90;;;;;;5006214;28;20046;-79
2020/12/13 06:29:23;;;;;;;34.92;15.98;;;7.40;99.90;;;;;;5022423;28;20030;-80
2020/12/13 06:31:50;;;;;;;39.45;14.60;;;7.50;99.90;;;;;;5006168;28;20073;-80
2020/12/13 06:34:16;;;;;;;29.95;12.95;;;7.40;99.90;;;;;;5005811;28;20027;-79
2020/12/13 06:36:43;;;;;;;33.15;13.82;;;7.40;99.90;;;;;;5006252;28;20482;-79
2020/12/13 06:39:17;;;;;;;31.05;12.82;;;7.40;99.90;;;;;;5022468;28;20031;-79
2020/12/13 06:41:44;;;;;;;26.90;10.60;;;7.40;99.90;;;;;;5022555;28;20035;-80
2020/12/13 06:44:11;;;;;;;33.75;14.68;;;7.40;99.90;;;;;;5022017;28;20427;-80
2020/12/13 06:46:40;;;;;;;36.72;15.70;;;7.40;99.90;;;;;;5022284;28;20133;-79
2020/12/13 06:49:07;;;;;;;37.45;15.23;;;7.50;99.90;;;;;;5007021;28;20038;-79
2020/12/13 06:51:34;;;;;;;37.80;14.60;;;7.50;99.90;;;;;;5007193;28;20038;-79
2020/12/13 06:54:02;;;;;;;34.30;13.50;;;7.40;99.90;;;;;;5021809;28;20034;-80
2020/12/13 06:56:28;;;;;;;33.45;13.55;;;7.40;99.90;;;;;;5005439;28;20054;-80
2020/12/13 06:58:57;;;;;;;37.28;14.82;;;7.40;99.90;;;;;;5022073;28;20122;-80
2020/12/13 07:01:28;;;;;;;35.05;14.38;;;7.40;99.90;;;;;;5021129;28;20030;-80
2020/12/13 07:07:25;;;;;;;28.30;12.00;;;7.40;99.90;;;;;;5003760;28;20514;-78
2020/12/13 07:09:52;;;;;;;29.13;12.23;;;7.40;99.90;;;;;;4989064;28;20034;-79
2020/12/13 07:12:18;;;;;;;36.85;14.88;;;7.40;99.90;;;;;;5005545;28;20064;-79
2020/12/13 07:14:44;;;;;;;36.45;15.48;;;7.40;99.90;;;;;;5008736;28;20022;-79
2020/12/13 07:17:15;;;;;;;31.70;14.07;;;7.40;99.90;;;;;;5008742;28;20056;-80
2020/12/13 07:19:41;;;;;;;36.63;16.40;;;7.50;99.90;;;;;;5008707;28;20064;-79
2020/12/13 07:22:10;;;;;;;28.02;13.35;;;7.50;99.90;;;;;;5012922;28;20026;-79
2020/12/13 07:24:36;;;;;;;30.67;13.03;;;7.40;99.90;;;;;;5005059;28;20065;-79
2020/12/13 07:27:03;;;;;;;31.65;13.50;;;7.40;99.90;;;;;;4972710;28;20301;-79
2020/12/13 07:29:29;;;;;;;32.22;14.43;;;7.40;99.90;;;;;;4972877;28;20030;-79
2020/12/13 07:31:56;;;;;;;30.38;12.80;;;7.40;99.90;;;;;;4989143;28;20038;-81
2020/12/13 07:34:21;;;;;;;23.20;10.95;;;7.40;99.90;;;;;;4988676;28;20467;-80
2020/12/13 07:36:47;;;;;;;27.10;12.93;;;7.40;99.90;;;;;;4988967;28;20041;-80
2020/12/13 07:39:13;;;;;;;29.35;11.98;;;7.40;99.90;;;;;;4972631;28;20049;-80
2020/12/13 07:41:41;;;;;;;31.00;12.00;;;7.40;99.90;;;;;;4972712;28;20038;-80
2020/12/13 07:44:12;;;;;;;32.53;14.82;;;7.40;99.90;;;;;;5006170;28;20562;-79
2020/12/13 07:46:41;;;;;;;28.65;13.15;;;7.40;99.90;;;;;;4972675;28;20062;-79
2020/12/13 07:49:18;;;;;;;31.50;13.00;;;7.40;99.90;;;;;;5004790;28;20034;-79
2020/12/13 07:51:48;;;;;;;27.55;11.45;;;7.40;99.90;;;;;;4988927;28;20035;-79
2020/12/13 07:54:21;;;;;;;;;;;7.40;99.90;;;;;;4972951;28;20027;-80
2020/12/13 07:56:49;;;;;;;29.40;11.68;;;7.50;99.90;;;;;;4988631;28;19917;-79
2020/12/13 07:59:17;;;;;;;33.40;14.73;;;7.40;99.90;;;;;;4972664;28;20182;-80
2020/12/13 08:01:45;;;;;;;36.67;13.32;;;7.50;99.90;;;;;;4972644;28;20038;-80
2020/12/13 08:07:10;;;;;;;26.92;12.02;;;7.50;99.90;;;;;;5055503;23;20099;-79
2020/12/13 08:09:42;;;;;;;28.98;12.45;;;7.40;99.90;;;;;;5044509;28;20040;-79
2020/12/13 08:12:09;;;;;;;27.83;12.05;;;7.40;99.90;;;;;;5027399;28;20033;-79
2020/12/13 08:14:34;;;;;;;29.25;12.38;;;7.40;99.90;;;;;;5014624;28;21314;-79
2020/12/13 08:17:00;;;;;;;30.23;12.18;;;7.40;99.90;;;;;;5015584;28;20037;-79
2020/12/13 08:19:42;;;;;;;27.90;13.05;;;7.40;99.90;;;;;;5031954;28;20052;-80
2020/12/13 08:22:26;;;;;;;33.13;12.70;;;7.50;99.90;;;;;;5014949;28;20037;-79
2020/12/13 08:24:53;;;;;;;27.50;11.13;;;7.50;99.90;;;;;;5048478;28;20086;-80
2020/12/13 08:27:19;;;;;;;28.15;11.68;;;7.50;99.90;;;;;;5030702;28;20055;-79
2020/12/13 08:29:45;;;;;;;32.75;12.60;;;7.50;99.90;;;;;;5014331;28;20029;-80
2020/12/13 08:32:15;;;;;;;29.50;12.23;;;7.50;99.90;;;;;;5014480;28;20116;-79
2020/12/13 08:34:41;;;;;;;32.75;12.95;;;7.50;99.90;;;;;;5030369;28;20025;-80
2020/12/13 08:37:07;;;;;;;29.08;12.50;;;7.50;99.90;;;;;;5014371;28;20037;-80
2020/12/13 08:39:34;;;;;;;28.58;11.63;;;7.60;99.90;;;;;;5030715;28;20033;-82
2020/12/13 08:42:03;;;;;;;27.60;12.35;;;7.60;99.90;;;;;;5013973;28;20038;-79
2020/12/13 08:44:37;;;;;;;31.40;14.00;;;7.60;99.90;;;;;;5030392;28;20401;-80
2020/12/13 08:47:05;;;;;;;31.42;14.00;;;7.60;99.90;;;;;;5030667;28;20045;-80
2020/12/13 08:49:36;;;;;;;27.08;12.60;;;7.60;99.90;;;;;;5014178;28;20036;-80
2020/12/13 08:52:34;;;;;;;29.83;13.35;;;7.60;99.90;;;;;;5014212;28;20084;-79
2020/12/13 08:55:05;;;;;;;25.92;12.13;;;7.60;99.90;;;;;;4992351;28;20362;-79
2020/12/13 08:57:36;;;;;;;25.95;12.80;;;7.60;99.90;;;;;;5013888;28;20118;-78
2020/12/13 09:00:13;;;;;;;23.25;10.93;;;7.60;99.90;;;;;;5030162;28;20033;-80
2020/12/13 09:02:39;;;;;;;26.08;11.85;;;7.60;99.90;;;;;;5013987;28;20032;-79
2020/12/13 09:05:07;;;;;;;24.95;12.45;;;7.60;99.90;;;;;;5030037;28;20033;-80
2020/12/13 09:07:33;;;;;;;25.60;11.38;;;7.60;99.90;;;;;;5030013;28;20049;-79
2020/12/13 09:10:19;;;;;;;23.73;10.40;;;7.60;99.90;;;;;;5030160;28;20021;-80
2020/12/13 09:12:45;;;;;;;22.67;10.50;;;7.60;99.90;;;;;;5010151;28;20029;-79
2020/12/13 09:15:15;;;;;;;26.35;12.20;;;7.60;99.90;;;;;;5027979;28;20060;-80
2020/12/13 09:17:41;;;;;;;24.13;12.68;;;7.60;99.90;;;;;;5047889;28;20068;-80
2020/12/13 09:20:07;;;;;;;25.58;12.65;;;7.60;99.90;;;;;;5029802;28;20033;-81
2020/12/13 09:22:33;;;;;;;23.83;12.13;;;7.60;99.90;;;;;;5029913;28;20029;-78
2020/12/13 09:24:59;;;;;;;22.42;11.07;;;7.60;99.90;;;;;;5012078;28;20033;-80
2020/12/13 09:27:26;;;;;;;23.33;11.75;;;7.60;99.90;;;;;;5013324;28;20076;-80
2020/12/13 09:29:52;;;;;;;23.08;11.18;;;7.70;99.90;;;;;;5013374;28;20029;-80
2020/12/13 09:32:20;;;;;;;23.00;11.25;;;7.70;99.90;;;;;;5013354;28;20041;-80
2020/12/13 09:34:46;;;;;;;20.95;11.25;;;7.70;99.90;;;;;;5029428;28;20025;-80
2020/12/13 09:37:14;;;;;;;16.80;8.40;;;7.70;99.90;;;;;;4996913;28;20040;-79
2020/12/13 09:39:40;;;;;;;19.25;10.32;;;7.70;99.90;;;;;;5029533;28;20034;-80
2020/12/13 09:42:07;;;;;;;22.80;10.65;;;7.70;99.90;;;;;;5029552;28;20084;-80
2020/12/13 09:44:33;;;;;;;25.05;12.48;;;7.70;99.90;;;;;;5012798;28;20025;-80
2020/12/13 09:47:00;;;;;;;22.20;12.05;;;7.70;99.90;;;;;;5012852;28;20061;-79
2020/12/13 09:49:27;;;;;;;24.17;13.13;;;7.70;99.90;;;;;;5047248;28;20036;-80
2020/12/13 09:52:03;;;;;;;23.30;12.55;;;7.70;99.90;;;;;;5012777;28;20044;-79
2020/12/13 09:54:29;;;;;;;26.20;13.18;;;7.70;99.90;;;;;;5012819;28;20025;-79
2020/12/13 09:56:55;;;;;;;29.88;15.73;;;7.60;99.90;;;;;;5029206;28;20036;-81
2020/12/13 09:59:21;;;;;;;28.83;14.55;;;7.70;99.90;;;;;;5012752;28;20440;-82
2020/12/13 10:01:47;;;;;;;26.90;13.35;;;7.70;99.90;;;;;;5029077;28;20029;-80
2020/12/13 10:07:15;;;;;;;29.67;16.90;;;7.70;99.90;;;;;;5022266;28;20541;-79
2020/12/13 10:09:40;;;;;;;27.45;14.90;;;7.70;99.90;;;;;;4993605;28;20429;-80
2020/12/13 10:12:06;;;;;;;27.83;14.13;;;7.80;99.90;;;;;;5026933;28;20026;-80
2020/12/13 10:14:32;;;;;;;33.20;16.98;;;7.70;99.90;;;;;;5026462;28;20470;-84
2020/12/13 10:16:57;;;;;;;36.75;17.30;;;7.70;99.90;;;;;;5009065;28;20064;-80
2020/12/13 10:19:24;;;;;;;35.28;19.48;;;7.70;99.90;;;;;;5009370;28;20080;-80
2020/12/13 10:21:50;;;;;;;33.50;16.92;;;7.60;99.90;;;;;;4999266;28;20050;-80
2020/12/13 10:24:16;;;;;;;35.70;17.15;;;7.70;99.90;;;;;;5007560;28;20038;-80
2020/12/13 10:26:41;;;;;;;30.70;16.30;;;7.60;99.90;;;;;;5025222;28;20061;-80
2020/12/13 10:29:08;;;;;;;38.63;19.33;;;7.70;99.90;;;;;;5025340;28;20030;-80
2020/12/13 10:31:41;;;;;;;39.22;20.85;;;7.80;99.90;;;;;;4992518;28;20104;-80
2020/12/13 10:34:09;;;;;;;36.90;18.95;;;7.70;99.90;;;;;;5008735;28;20026;-80
2020/12/13 10:36:36;;;;;;;42.50;22.13;;;7.70;99.90;;;;;;4992513;28;20034;-80
2020/12/13 10:39:04;;;;;;;41.83;22.70;;;7.70;99.90;;;;;;5008839;28;20034;-80
2020/12/13 10:41:31;;;;;;;39.33;20.95;;;7.70;99.90;;;;;;5008681;28;20033;-80
2020/12/13 10:43:56;;;;;;;36.72;19.13;;;7.70;99.90;;;;;;5026369;28;20101;-81
2020/12/13 10:46:22;;;;;;;38.33;20.80;;;7.70;99.90;;;;;;4992231;28;20076;-80
2020/12/13 10:48:48;;;;;;;41.53;21.33;;;7.60;99.90;;;;;;5026483;28;20030;-80
2020/12/13 10:51:15;;;;;;;35.65;20.42;;;7.60;99.90;;;;;;5024855;28;20036;-80
2020/12/13 10:53:42;;;;;;;37.58;18.10;;;7.60;99.90;;;;;;4992331;28;20044;-81
2020/12/13 10:56:07;;;;;;;34.28;17.80;;;7.60;99.90;;;;;;5041192;23;20052;-79
2020/12/13 10:58:33;;;;;;;28.15;17.30;;;7.60;99.90;;;;;;5028630;28;20041;-79
2020/12/13 11:01:01;;;;;;;36.45;17.98;;;7.70;99.90;;;;;;5028204;28;20037;-79
2020/12/13 11:03:47;;;;;;;29.70;17.27;;;7.60;99.90;;;;;;5027953;28;20044;-79
2020/12/13 11:06:12;;;;;;;30.30;17.35;;;7.60;99.90;;;;;;4984891;28;20118;-79
2020/12/13 11:08:39;;;;;;;27.23;16.17;;;7.60;99.90;;;;;;4965236;29;20047;-80
2020/12/13 11:11:05;;;;;;;23.23;13.30;;;7.60;99.90;;;;;;4964236;28;20507;-82
2020/12/13 11:13:31;;;;;;;30.50;15.20;;;7.60;99.90;;;;;;4968439;28;20602;-81
2020/12/13 11:15:57;;;;;;;30.48;15.75;;;7.60;99.90;;;;;;4981601;28;20100;-80
2020/12/13 11:18:23;;;;;;;26.83;15.88;;;7.60;99.90;;;;;;4987704;28;20041;-82
2020/12/13 11:20:48;;;;;;;28.05;15.15;;;7.70;99.90;;;;;;4986036;28;20038;-80
2020/12/13 11:23:14;;;;;;;21.70;13.65;;;7.70;99.90;;;;;;4984021;28;20034;-81
2020/12/13 11:25:39;;;;;;;19.67;12.15;;;7.80;99.90;;;;;;4967937;28;20031;-80
2020/12/13 11:28:06;;;;;;;21.25;12.27;;;7.80;99.90;;;;;;4967878;28;20038;-81
2020/12/13 11:30:32;;;;;;;22.15;11.43;;;7.80;99.90;;;;;;4968060;28;20491;-81
2020/12/13 11:32:58;;;;;;;21.90;10.02;;;7.90;99.90;;;;;;4984143;28;20190;-80
2020/12/13 11:35:24;;;;;;;16.88;9.52;;;7.80;99.90;;;;;;4967774;28;20115;-80
2020/12/13 11:37:50;;;;;;;22.50;10.25;;;7.90;99.90;;;;;;4963602;28;20098;-81
2020/12/13 11:40:15;;;;;;;16.38;8.57;;;7.90;99.90;;;;;;4967991;28;20105;-81
2020/12/13 11:42:41;;;;;;;17.35;8.88;;;7.90;99.90;;;;;;4984113;28;20407;-80
2020/12/13 11:45:07;;;;;;;17.17;8.32;;;7.90;99.90;;;;;;5003840;28;20034;-83
2020/12/13 11:47:34;;;;;;;16.92;8.32;;;7.90;99.90;;;;;;5024621;28;20029;-81
2020/12/13 11:49:59;;;;;;;14.75;6.88;;;7.80;99.90;;;;;;5024199;28;20510;-80
2020/12/13 11:52:25;;;;;;;12.70;6.43;;;8.00;99.90;;;;;;5007569;28;20041;-81
2020/12/13 11:54:50;;;;;;;14.63;6.47;;;8.00;99.90;;;;;;5024026;28;20029;-80
2020/12/13 11:57:16;;;;;;;17.70;7.43;;;8.00;99.90;;;;;;5023835;28;20458;-81
2020/12/13 11:59:42;;;;;;;13.38;6.10;;;8.00;99.90;;;;;;5024059;28;20101;-82
2020/12/13 12:02:08;;;;;;;12.68;5.80;;;8.10;99.90;;;;;;5023762;28;20030;-81
2020/12/13 12:04:33;;;;;;;13.02;5.40;;;8.10;99.90;;;;;;5023693;28;20102;-81
2020/12/13 12:07:01;;;;;;;9.50;4.70;;;8.10;99.90;;;;;;5023602;28;20178;-80
2020/12/13 12:09:27;;;;;;;14.98;5.43;;;8.10;99.90;;;;;;5025845;28;20040;-82
2020/12/13 12:11:52;;;;;;;12.35;4.18;;;8.10;99.90;;;;;;5023911;28;20116;-81
2020/12/13 12:14:18;;;;;;;8.00;3.35;;;8.10;99.90;;;;;;5024871;28;20127;-81
2020/12/13 12:16:44;;;;;;;11.18;4.22;;;8.10;99.90;;;;;;5046923;28;20028;-81
2020/12/13 12:19:11;;;;;;;7.43;3.67;;;8.10;99.90;;;;;;5046693;28;20029;-81
2020/12/13 12:21:42;;;;;;;9.68;4.25;;;8.00;99.90;;;;;;5035373;28;20496;-80
2020/12/13 12:24:08;;;;;;;8.48;3.70;;;8.00;99.90;;;;;;5008873;28;20068;-81
2020/12/13 12:26:34;;;;;;;8.27;3.20;;;8.00;99.90;;;;;;5026987;28;20026;-81
2020/12/13 12:29:01;;;;;;;11.57;3.28;;;8.00;99.90;;;;;;5044791;28;20051;-80
2020/12/13 12:31:27;;;;;;;6.97;3.92;;;8.10;99.90;;;;;;5027021;28;20037;-82
2020/12/13 12:33:54;;;;;;;5.30;3.30;;;8.00;99.90;;;;;;5044256;28;20385;-81
2020/12/13 12:36:22;;;;;;;10.07;3.95;;;8.10;99.90;;;;;;5026845;28;20113;-80
2020/12/13 12:38:49;;;;;;;6.82;3.17;;;8.00;99.90;;;;;;5026946;28;20083;-80
2020/12/13 12:41:16;;;;;;;7.85;2.63;;;8.10;99.90;;;;;;5010724;28;20036;-81
2020/12/13 12:43:44;;;;;;;11.23;2.88;;;8.00;99.90;;;;;;5044479;28;20037;-79
2020/12/13 12:46:10;;;;;;;9.40;4.22;;;8.20;99.90;;;;;;5010272;28;20120;-81
2020/12/13 12:48:36;;;;;;;6.68;2.95;;;8.10;99.90;;;;;;5026629;28;20029;-81
2020/12/13 12:51:03;;;;;;;11.50;3.53;;;8.10;99.90;;;;;;5010364;28;20025;-80
2020/12/13 12:53:29;;;;;;;9.32;2.78;;;8.00;99.90;;;;;;5010445;28;20032;-84
2020/12/13 12:55:55;;;;;;;9.20;4.18;;;7.90;99.90;;;;;;5010085;28;20029;-80
2020/12/13 12:58:21;;;;;;;8.40;3.80;;;7.90;99.90;;;;;;5027526;28;20041;-80